createdAt,value
2023-05-03T00:03:34.788Z,1.70
2023-05-03T00:08:51.868Z,2.22
2023-05-03T00:14:07.531Z,2.15
2023-05-03T00:19:31.408Z,1.95
2023-05-03T00:24:47.711Z,1.90
2023-05-03T00:30:04.252Z,1.98
2023-05-03T00:35:20.520Z,1.63
2023-05-03T00:40:36.191Z,2.00
2023-05-03T00:45:52.594Z,1.67
2023-05-03T00:51:15.145Z,1.95
2023-05-03T00:56:38.021Z,2.03
2023-05-03T01:02:04.676Z,1.63
2023-05-03T01:07:43.527Z,1.67
2023-05-03T01:13:36.890Z,2.55
2023-05-03T01:18:55.568Z,2.08
2023-05-03T01:24:24.721Z,2.08
2023-05-03T01:29:40.711Z,1.95
2023-05-03T01:35:08.887Z,2.05
2023-05-03T01:40:29.071Z,2.20
2023-05-03T01:45:45.327Z,2.17
2023-05-03T01:51:01.985Z,2.25
2023-05-03T01:56:17.708Z,2.40
2023-05-03T02:01:33.638Z,2.35
2023-05-03T02:06:49.404Z,1.90
2023-05-03T02:12:05.633Z,1.95
2023-05-03T02:17:22.584Z,1.73
2023-05-03T02:22:38.152Z,2.00
2023-05-03T02:27:54.131Z,2.13
2023-05-03T02:33:10.150Z,2.03
2023-05-03T02:38:25.953Z,2.58
2023-05-03T02:43:41.674Z,2.10
2023-05-03T02:48:57.167Z,1.77
2023-05-03T02:54:13.097Z,2.42
2023-05-03T02:59:29.327Z,2.22
2023-05-03T03:04:45.067Z,1.92
2023-05-03T03:10:01.112Z,1.90
2023-05-03T03:15:17.328Z,2.03
2023-05-03T03:20:33.336Z,2.15
2023-05-03T03:25:49.233Z,1.98
2023-05-03T03:31:05.301Z,2.30
2023-05-03T03:36:21.240Z,2.22
2023-05-03T03:41:37.089Z,2.33
2023-05-03T03:46:53.091Z,2.65
2023-05-03T03:52:09.220Z,2.58
2023-05-03T03:57:26.387Z,3.20
2023-05-03T04:02:42.267Z,3.13
2023-05-03T04:07:58.544Z,2.35
2023-05-03T04:13:14.271Z,2.40
2023-05-03T04:18:30.258Z,2.55
2023-05-03T04:23:46.456Z,2.15
2023-05-03T04:29:02.905Z,2.47
2023-05-03T04:34:19.194Z,2.05
2023-05-03T04:39:34.574Z,2.42
2023-05-03T04:44:50.515Z,1.95
2023-05-03T04:50:08.930Z,2.28
2023-05-03T04:55:24.792Z,2.30
2023-05-03T05:00:43.511Z,2.40
2023-05-03T05:05:59.308Z,2.72
2023-05-03T05:11:15.074Z,2.80
2023-05-03T05:16:31.027Z,2.95
2023-05-03T05:21:46.559Z,2.90
2023-05-03T05:27:03.287Z,3.30
2023-05-03T05:32:19.028Z,4.05
2023-05-03T05:37:35.080Z,5.55
2023-05-03T05:42:51.116Z,3.70
2023-05-03T05:48:07.004Z,4.40
2023-05-03T05:53:24.119Z,3.20
2023-05-03T05:58:40.649Z,5.43
2023-05-03T06:03:56.739Z,3.45
2023-05-03T06:09:23.398Z,2.83
2023-05-03T06:14:46.179Z,2.97
2023-05-03T06:20:05.330Z,3.17
2023-05-03T06:25:21.627Z,3.20
2023-05-03T06:30:37.561Z,3.03
2023-05-03T06:35:54.156Z,2.50
2023-05-03T06:41:09.908Z,2.75
2023-05-03T06:46:27.852Z,2.60
2023-05-03T06:51:43.785Z,2.67
2023-05-03T06:56:59.353Z,2.40
2023-05-03T07:02:15.350Z,2.28
2023-05-03T07:07:31.157Z,2.38
2023-05-03T07:12:46.747Z,2.45
2023-05-03T07:18:03.496Z,2.53
2023-05-03T07:23:20.062Z,2.72
2023-05-03T07:28:35.944Z,3.10
2023-05-03T07:33:51.949Z,2.78
2023-05-03T07:39:08.041Z,2.67
2023-05-03T07:44:23.848Z,3.17
2023-05-03T07:49:39.836Z,2.28
2023-05-03T07:54:55.539Z,2.42
2023-05-03T08:00:12.680Z,2.03
2023-05-03T08:05:28.506Z,2.00
2023-05-03T08:10:44.386Z,1.90
2023-05-03T08:16:00.486Z,2.10
2023-05-03T08:21:17.754Z,2.10
2023-05-03T08:26:34.434Z,2.38
2023-05-03T08:31:51.565Z,1.85
2023-05-03T08:37:07.694Z,2.13
2023-05-03T08:42:25.759Z,2.30
2023-05-03T08:47:45.200Z,2.13
2023-05-03T08:53:01.393Z,2.90
2023-05-03T08:58:17.545Z,2.13
2023-05-03T09:03:35.196Z,2.22
2023-05-03T09:08:50.923Z,2.30
2023-05-03T09:14:12.641Z,2.05
2023-05-03T09:19:28.356Z,2.63
2023-05-03T09:24:54.008Z,2.30
2023-05-03T09:30:19.889Z,2.20
2023-05-03T09:35:36.074Z,2.17
2023-05-03T09:40:51.718Z,2.05
2023-05-03T09:46:12.451Z,1.90
2023-05-03T09:51:29.289Z,1.80
2023-05-03T09:56:47.583Z,1.30
2023-05-03T10:02:07.856Z,2.08
2023-05-03T10:07:26.606Z,1.48
2023-05-03T10:12:42.912Z,1.60
2023-05-03T10:18:03.803Z,1.40
2023-05-03T10:23:19.433Z,2.15
2023-05-03T10:28:35.798Z,2.05
2023-05-03T10:33:52.862Z,2.30
2023-05-03T10:39:15.234Z,2.72
2023-05-03T10:44:49.494Z,3.25
2023-05-03T10:50:17.378Z,2.30
2023-05-03T10:55:33.570Z,2.38
2023-05-03T11:00:51.754Z,2.40
2023-05-03T11:06:07.706Z,2.00
2023-05-03T11:11:24.089Z,2.67
2023-05-03T11:16:48.237Z,1.85
2023-05-03T11:22:04.575Z,1.63
2023-05-03T11:27:26.937Z,2.00
2023-05-03T11:32:44.084Z,2.00
2023-05-03T11:38:00.144Z,1.98
2023-05-03T11:43:16.007Z,2.05
2023-05-03T11:48:33.563Z,1.95
2023-05-03T11:53:50.448Z,2.00
2023-05-03T11:59:06.201Z,1.88
2023-05-03T12:04:24.054Z,1.80
2023-05-03T12:09:41.719Z,2.17
2023-05-03T12:15:04.077Z,2.05
2023-05-03T12:25:44.456Z,1.60
2023-05-03T12:31:02.317Z,1.73
2023-05-03T12:36:21.276Z,1.33
2023-05-03T12:46:55.696Z,2.03
2023-05-03T12:52:36.218Z,1.35
2023-05-03T12:57:56.153Z,1.45
2023-05-03T13:03:31.994Z,1.35
2023-05-03T13:08:50.823Z,1.42
2023-05-03T13:14:07.685Z,1.15
2023-05-03T13:19:23.701Z,1.23
2023-05-03T13:24:41.560Z,1.10
2023-05-03T13:29:57.260Z,1.40
2023-05-03T13:35:13.596Z,1.25
2023-05-03T13:40:29.867Z,1.50
2023-05-03T13:45:45.909Z,1.30
2023-05-03T13:51:08.760Z,1.27
2023-05-03T13:56:24.357Z,0.90
2023-05-03T14:01:41.493Z,0.70
2023-05-03T14:06:59.212Z,1.00
2023-05-03T14:12:14.848Z,1.02
2023-05-03T14:17:30.901Z,0.95
2023-05-03T14:22:47.084Z,0.98
2023-05-03T14:28:02.717Z,0.90
2023-05-03T14:33:18.842Z,0.93
2023-05-03T14:38:35.604Z,1.08
2023-05-03T14:43:51.259Z,0.95
2023-05-03T14:49:07.481Z,0.93
2023-05-03T14:54:23.396Z,1.02
2023-05-03T14:59:39.378Z,1.10
2023-05-03T15:04:55.657Z,1.25
2023-05-03T15:10:11.757Z,1.15
2023-05-03T15:15:27.350Z,0.95
2023-05-03T15:20:43.255Z,1.25
2023-05-03T15:25:59.285Z,1.58
2023-05-03T15:31:17.868Z,1.48
2023-05-03T15:36:37.422Z,1.27
2023-05-03T15:41:53.171Z,1.60
2023-05-03T15:47:09.234Z,1.60
2023-05-03T15:52:25.180Z,1.25
2023-05-03T15:57:41.411Z,1.65
2023-05-03T16:02:58.311Z,1.40
2023-05-03T16:08:14.655Z,1.50
2023-05-03T16:13:30.940Z,1.33
2023-05-03T16:18:46.919Z,1.67
2023-05-03T16:24:02.264Z,1.50
2023-05-03T16:29:18.410Z,2.05
2023-05-03T16:34:34.279Z,1.73
2023-05-03T16:39:50.080Z,1.88
2023-05-03T16:45:16.232Z,2.25
2023-05-03T16:50:31.682Z,1.70
2023-05-03T16:55:47.939Z,1.80
2023-05-03T17:01:04.254Z,2.50
2023-05-03T17:06:20.502Z,2.67
2023-05-03T17:11:36.621Z,2.35
2023-05-03T17:16:52.754Z,3.40
2023-05-03T17:22:08.829Z,2.78
2023-05-03T17:27:24.887Z,2.83
2023-05-03T17:32:41.020Z,2.45
2023-05-03T17:37:57.325Z,2.60
2023-05-03T17:43:13.988Z,2.58
2023-05-03T17:48:29.912Z,2.78
2023-05-03T17:53:45.501Z,2.83
2023-05-03T17:59:02.123Z,2.60
2023-05-03T18:04:17.709Z,2.53
2023-05-03T18:09:33.897Z,3.97
2023-05-03T18:14:49.459Z,3.10
2023-05-03T18:20:06.826Z,4.22
2023-05-03T18:25:22.867Z,4.30
2023-05-03T18:30:38.704Z,4.57
2023-05-03T18:35:54.737Z,5.13
2023-05-03T18:41:16.825Z,4.70
2023-05-03T18:46:32.902Z,3.90
2023-05-03T18:51:49.903Z,4.60
2023-05-03T18:57:05.685Z,4.07
2023-05-03T19:02:21.681Z,5.68
2023-05-03T19:07:37.857Z,4.90
2023-05-03T19:12:54.091Z,4.78
2023-05-03T19:18:10.194Z,5.38
2023-05-03T19:23:25.925Z,5.68
2023-05-03T19:28:41.861Z,6.03
2023-05-03T19:33:57.910Z,6.65
2023-05-03T19:39:13.984Z,6.13
2023-05-03T19:44:30.877Z,6.38
2023-05-03T19:49:46.879Z,5.30
2023-05-03T19:55:03.694Z,4.10
2023-05-03T20:00:21.391Z,4.47
2023-05-03T20:05:37.400Z,4.95
2023-05-03T20:10:55.783Z,5.00
2023-05-03T20:16:12.530Z,5.05
2023-05-03T20:21:28.651Z,5.05
2023-05-03T20:26:44.653Z,6.20
2023-05-03T20:32:01.275Z,7.82
2023-05-03T20:37:17.267Z,5.82
2023-05-03T20:42:33.804Z,4.43
2023-05-03T20:47:49.673Z,4.18
2023-05-03T20:53:06.105Z,5.43
2023-05-03T20:58:21.626Z,5.45
2023-05-03T21:03:37.577Z,5.80
2023-05-03T21:08:53.384Z,6.75
2023-05-03T21:14:10.979Z,7.07
2023-05-03T21:19:26.724Z,6.03
2023-05-03T21:24:42.832Z,6.07
2023-05-03T21:29:58.620Z,5.47
2023-05-03T21:35:14.590Z,6.30
2023-05-03T21:40:30.585Z,6.05
2023-05-03T21:45:48.478Z,5.90
2023-05-03T21:51:04.803Z,6.72
2023-05-03T21:56:20.584Z,6.70
2023-05-03T22:01:36.283Z,6.75
2023-05-03T22:06:53.053Z,7.70
2023-05-03T22:12:22.287Z,7.43
2023-05-03T22:17:39.437Z,8.53
2023-05-03T22:22:55.528Z,8.77
2023-05-03T22:28:11.711Z,8.32
2023-05-03T22:33:27.622Z,7.40
2023-05-03T22:38:43.816Z,8.25
2023-05-03T22:43:59.751Z,7.72
2023-05-03T22:49:15.791Z,7.15
2023-05-03T22:54:31.636Z,7.47
2023-05-03T22:59:47.480Z,8.43
2023-05-03T23:05:03.549Z,9.30
2023-05-03T23:10:19.602Z,8.43
2023-05-03T23:15:37.082Z,9.85
2023-05-03T23:20:53.758Z,9.25
2023-05-03T23:26:09.465Z,9.57
2023-05-03T23:31:26.127Z,9.30
2023-05-03T23:36:43.105Z,9.02
2023-05-03T23:41:59.043Z,7.85
2023-05-03T23:47:14.612Z,7.97
2023-05-03T23:52:30.588Z,6.88
2023-05-03T23:57:46.488Z,6.65
